Time;durP1;ratioP1;P1;durP2;ratioP2;P2;SDS_P1;SDS_P2;PMS_P1;PMS_P2;Temp;Humidity;BMP_temperature;BMP_pressure;BME280_temperature;BME280_humidity;BME280_pressure;Samples;Min_cycle;Max_cycle;Signal;HPM_P1;HPM_P2
2023/06/05 00:02:05;;;;;;;;;5.00;5.00;;;;;20.87;41.94;101445.16;5035646;28;45427;-53
2023/06/05 00:04:30;;;;;;;;;14.00;11.00;;;;;20.89;42.49;101453.06;5035760;28;45375;-50
2023/06/05 00:06:57;;;;;;;;;5.00;4.00;;;;;20.92;41.91;101460.78;5036050;28;45432;-53
2023/06/05 00:09:22;;;;;;;;;4.50;4.00;;;;;20.87;42.19;101457.84;5035536;28;46984;-53
2023/06/05 00:11:48;;;;;;;;;40.33;31.33;;;;;20.83;42.65;101453.88;5035590;28;45447;-54
2023/06/05 00:14:13;;;;;;;;;7.50;5.50;;;;;20.79;42.46;101456.13;5035287;28;45358;-55
2023/06/05 00:16:39;;;;;;;;;7.00;7.00;;;;;20.76;42.88;101448.38;5035646;28;45509;-53
2023/06/05 00:19:04;;;;;;;;;6.00;4.00;;;;;20.74;42.75;101452.34;5035571;28;45924;-55
2023/06/05 00:21:30;;;;;;;;;3.75;3.50;;;;;20.58;42.64;101438.06;5035511;28;45360;-50
2023/06/05 00:23:56;;;;;;;;;6.25;4.25;;;;;20.66;43.32;101448.75;5035518;28;45401;-51
2023/06/05 00:26:21;;;;;;;;;7.25;4.25;;;;;20.57;43.38;101444.50;5035749;28;45690;-52
2023/06/05 00:28:49;;;;;;;;;7.50;5.75;;;;;20.59;42.97;101449.72;5035381;28;45321;-51
2023/06/05 00:31:17;;;;;;;;;4.75;4.50;;;;;20.58;43.50;101456.16;5034916;28;45369;-54
2023/06/05 00:33:42;;;;;;;;;6.25;6.25;;;;;20.54;43.60;101455.72;5035456;28;45396;-54
2023/06/05 00:36:11;;;;;;;;;10.67;10.33;;;;;20.52;43.12;101465.91;5035601;28;45337;-52
2023/06/05 00:38:36;;;;;;;;;7.75;7.75;;;;;20.49;43.73;101460.88;5034952;28;46446;-57
2023/06/05 00:41:01;;;;;;;;;7.75;6.00;;;;;20.45;44.09;101462.25;5035268;28;45225;-54
2023/06/05 00:43:27;;;;;;;;;7.25;4.00;;;;;20.42;43.66;101466.16;5035062;28;45299;-53
2023/06/05 00:45:59;;;;;;;;;6.25;5.00;;;;;20.39;43.70;101468.41;5035458;28;45339;-52
2023/06/05 00:48:26;;;;;;;;;5.50;5.25;;;;;20.36;43.60;101464.25;5035315;28;47120;-54
2023/06/05 00:50:52;;;;;;;;;6.00;4.25;;;;;20.34;44.09;101468.16;5034344;28;45422;-52
2023/06/05 00:53:17;;;;;;;;;5.50;4.00;;;;;20.32;44.12;101459.44;5035119;28;45259;-45
2023/06/05 00:55:43;;;;;;;;;6.50;5.00;;;;;20.26;43.92;101454.78;5037612;28;45325;-52
2023/06/05 00:58:09;;;;;;;;;5.00;5.00;;;;;20.22;44.20;101450.78;5038287;28;45337;-44
2023/06/05 01:00:36;;;;;;;;;5.00;5.00;;;;;20.21;43.96;101449.97;5038466;28;45421;-51
2023/06/05 01:03:01;;;;;;;;;6.25;6.25;;;;;20.21;44.53;101451.84;5038555;28;45338;-46
2023/06/05 01:05:26;;;;;;;;;7.50;4.75;;;;;20.16;44.27;101458.66;5038385;28;45807;-50
2023/06/05 01:07:53;;;;;;;;;6.00;6.00;;;;;20.13;44.80;101450.09;5038228;28;46147;-53
2023/06/05 01:10:19;;;;;;;;;6.00;5.75;;;;;20.11;45.02;101455.69;5038245;28;45371;-54
2023/06/05 01:12:59;;;;;;;;;6.00;4.75;;;;;20.07;44.28;101445.47;5038193;28;45491;-53
2023/06/05 01:15:30;;;;;;;;;5.25;4.00;;;;;20.07;44.77;101456.28;5038083;28;45608;-53
2023/06/05 01:17:59;;;;;;;;;5.00;3.00;;;;;20.05;44.97;101450.22;5038107;28;45353;-48
2023/06/05 01:20:39;;;;;;;;;5.00;3.00;;;;;20.01;44.79;101459.72;5038005;28;45405;-46
2023/06/05 01:23:13;;;;;;;;;8.33;6.00;;;;;19.94;44.73;101451.56;5038116;28;45517;-53
2023/06/05 01:25:41;;;;;;;;;4.25;4.25;;;;;19.94;44.96;101456.97;5037967;28;45355;-53
2023/06/05 01:28:15;;;;;;;;;4.75;4.00;;;;;19.89;45.15;101454.84;5037577;28;47341;-52
2023/06/05 01:30:52;;;;;;;;;9.33;5.00;;;;;19.87;45.32;101450.66;5037480;28;45361;-49
2023/06/05 01:33:41;;;;;;;;;5.00;4.50;;;;;19.84;44.91;101457.25;5037681;28;45332;-48
2023/06/05 01:36:09;;;;;;;;;6.00;4.50;;;;;19.80;45.70;101453.25;5037916;28;45689;-48
2023/06/05 01:38:36;;;;;;;;;3.67;3.67;;;;;19.77;45.91;101456.38;5037564;28;46116;-50
2023/06/05 01:41:03;;;;;;;;;7.00;4.00;;;;;19.75;45.73;101458.41;5037709;28;45437;-49
2023/06/05 01:43:30;;;;;;;;;5.25;4.00;;;;;19.73;46.03;101460.47;5037641;28;45350;-44
2023/06/05 01:45:58;;;;;;;;;5.00;5.00;;;;;19.69;45.98;101465.41;5037588;28;45374;-54
2023/06/05 01:48:27;;;;;;;;;5.00;5.00;;;;;19.67;45.52;101450.41;5037503;28;47017;-55
2023/06/05 01:50:55;;;;;;;;;6.00;5.00;;;;;19.64;46.20;101467.84;5037564;28;45239;-52
2023/06/05 01:53:20;;;;;;;;;11.67;6.33;;;;;19.61;46.22;101468.22;5037625;28;45456;-53
2023/06/05 01:55:46;;;;;;;;;5.50;4.00;;;;;19.54;46.37;101455.63;5037866;28;45808;-52
2023/06/05 01:58:12;;;;;;;;;4.00;3.00;;;;;19.53;46.41;101462.88;5019296;28;46047;-53
2023/06/05 02:00:37;;;;;;;;;8.00;5.00;;;;;19.51;46.53;101464.06;5036312;28;45474;-43
2023/06/05 02:03:03;;;;;;;;;5.33;4.33;;;;;19.44;46.74;101443.25;5037440;28;45315;-46
2023/06/05 02:05:29;;;;;;;;;44.67;36.00;;;;;19.44;46.83;101450.53;5037085;28;45281;-47
2023/06/05 02:07:58;;;;;;;;;26.67;19.00;;;;;19.31;46.75;101436.84;5036609;28;46052;-52
2023/06/05 02:10:24;;;;;;;;;7.00;5.33;;;;;19.37;46.96;101445.03;5037229;28;45393;-52
2023/06/05 02:12:50;;;;;;;;;5.33;5.33;;;;;19.33;47.01;101442.88;5036564;28;45505;-50
2023/06/05 02:15:15;;;;;;;;;6.00;6.00;;;;;19.25;47.26;101437.59;5037348;28;45465;-54
2023/06/05 02:17:50;;;;;;;;;4.33;3.67;;;;;19.21;46.91;101431.72;5036741;28;45366;-48
2023/06/05 02:20:16;;;;;;;;;6.67;5.00;;;;;19.25;47.19;101443.81;5036981;28;45568;-53
2023/06/05 02:22:42;;;;;;;;;6.00;4.67;;;;;19.23;47.27;101443.19;5037214;28;45330;-53
2023/06/05 02:25:10;;;;;;;;;5.00;5.00;;;;;19.19;47.41;101441.88;5037020;28;45483;-53
2023/06/05 02:27:36;;;;;;;;;7.33;6.33;;;;;19.15;47.54;101441.41;5036972;28;46981;-49
2023/06/05 02:30:01;;;;;;;;;6.67;5.00;;;;;19.15;47.46;101440.56;5036182;28;45476;-48
2023/06/05 02:32:28;;;;;;;;;5.33;5.33;;;;;19.11;47.69;101450.91;5036789;28;45334;-52
2023/06/05 02:34:56;;;;;;;;;8.00;5.33;;;;;19.09;47.72;101446.72;5037455;28;45330;-52
2023/06/05 02:37:22;;;;;;;;;5.00;5.00;;;;;19.05;47.80;101445.44;5036597;28;46927;-51
2023/06/05 02:39:48;;;;;;;;;9.67;6.00;;;;;19.03;47.93;101444.75;5018733;28;45327;-53
2023/06/05 02:42:13;;;;;;;;;5.67;4.00;;;;;19.00;47.89;101442.41;5036721;28;45417;-44
2023/06/05 02:44:38;;;;;;;;;5.00;5.00;;;;;18.96;47.83;101436.56;5036893;28;45853;-50
2023/06/05 02:47:04;;;;;;;;;11.67;5.67;;;;;18.93;47.93;101442.34;5036424;28;46277;-53
2023/06/05 02:49:31;;;;;;;;;5.00;3.33;;;;;18.93;48.47;101448.56;5036704;28;45735;-54
2023/06/05 02:51:57;;;;;;;;;10.00;4.00;;;;;18.87;48.28;101438.50;5036604;28;45393;-51
2023/06/05 02:54:22;;;;;;;;;7.00;6.00;;;;;18.85;48.28;101440.56;5036950;28;45434;-54
2023/06/05 02:56:49;;;;;;;;;5.33;4.00;;;;;18.82;47.67;101437.38;5036324;28;45877;-53
2023/06/05 02:59:15;;;;;;;;;5.00;5.00;;;;;18.78;48.62;101436.09;5018629;28;45624;-51
2023/06/05 03:01:46;;;;;;;;;8.67;4.67;;;;;18.74;48.62;101438.31;5036502;28;45463;-51
2023/06/05 03:04:12;;;;;;;;;5.67;5.67;;;;;18.73;48.93;101435.81;5035698;28;45475;-54
2023/06/05 03:06:43;;;;;;;;;5.67;5.00;;;;;18.69;49.05;101430.78;5036197;28;47059;-49
2023/06/05 03:09:09;;;;;;;;;7.00;4.00;;;;;18.66;49.01;101436.47;5018270;28;45437;-49
2023/06/05 03:11:34;;;;;;;;;6.33;4.67;;;;;18.61;48.84;101428.13;5036472;28;45388;-47
2023/06/05 03:13:59;;;;;;;;;6.67;5.33;;;;;18.60;49.01;101433.69;5036656;28;45509;-53
2023/06/05 03:16:34;;;;;;;;;7.33;6.00;;;;;18.55;49.11;101428.88;5036245;28;46440;-51
2023/06/05 03:19:00;;;;;;;;;10.33;6.33;;;;;18.56;49.07;101435.91;5036220;28;45365;-49
2023/06/05 03:21:25;;;;;;;;;4.33;4.00;;;;;18.52;49.32;101431.91;5036205;28;45362;-46
2023/06/05 03:23:50;;;;;;;;;6.00;6.00;;;;;18.51;49.29;101438.31;5036136;28;45286;-44
2023/06/05 03:26:15;;;;;;;;;6.67;6.67;;;;;18.49;49.43;101443.03;5036052;28;45953;-42
2023/06/05 03:28:41;;;;;;;;;4.67;4.67;;;;;18.47;49.32;101442.41;5036017;28;45267;-51
2023/06/05 03:31:06;;;;;;;;;3.00;2.67;;;;;18.45;49.45;101439.03;5036118;28;45429;-53
2023/06/05 03:33:32;;;;;;;;;7.00;6.00;;;;;18.40;49.73;101441.44;5036026;28;45433;-53
2023/06/05 03:35:57;;;;;;;;;8.33;6.67;;;;;18.39;49.93;101439.78;5018147;28;46367;-42
2023/06/05 03:38:23;;;;;;;;;6.00;6.00;;;;;18.25;49.77;101419.03;5035308;28;45342;-42
2023/06/05 03:40:48;;;;;;;;;9.67;6.00;;;;;18.33;50.02;101440.47;5036020;28;45571;-41
2023/06/05 03:43:13;;;;;;;;;71.50;53.25;;;;;18.28;50.02;101434.81;5036124;28;45326;-43
2023/06/05 03:45:40;;;;;;;;;15.67;15.00;;;;;18.28;50.28;101442.88;5035532;28;47001;-43
2023/06/05 03:48:06;;;;;;;;;12.00;8.00;;;;;18.27;50.40;101442.06;5035692;28;45406;-42
2023/06/05 03:50:33;;;;;;;;;7.33;6.00;;;;;18.20;50.76;101439.25;5035901;28;45382;-49
2023/06/05 03:53:03;;;;;;;;;6.00;5.67;;;;;18.22;50.05;101440.94;5035975;28;45460;-47
2023/06/05 03:55:41;;;;;;;;;7.33;6.67;;;;;18.17;50.05;101447.69;5017568;28;46545;-54
2023/06/05 03:58:16;;;;;;;;;7.00;6.00;;;;;18.15;50.35;101440.78;5035533;28;45409;-53
2023/06/05 04:00:50;;;;;;;;;7.33;6.00;;;;;18.09;50.53;101434.28;5035781;28;45765;-52
2023/06/05 04:03:16;;;;;;;;;7.00;5.00;;;;;18.06;50.54;101442.69;5034944;28;45461;-54
2023/06/05 04:05:42;;;;;;;;;12.00;7.33;;;;;18.07;50.50;101439.00;5035414;28;47250;-48
2023/06/05 04:08:11;;;;;;;;;6.00;6.00;;;;;18.04;50.93;101450.13;5035542;28;45398;-48
2023/06/05 04:10:38;;;;;;;;;5.33;5.00;;;;;18.04;50.54;101446.63;5035529;28;45398;-50
2023/06/05 04:13:04;;;;;;;;;11.00;7.00;;;;;18.03;51.20;101453.81;5035657;28;45437;-51
2023/06/05 04:15:30;;;;;;;;;9.33;7.00;;;;;18.01;51.49;101452.34;5035308;28;46123;-51
2023/06/05 04:17:56;;;;;;;;;15.33;10.00;;;;;17.99;51.37;101449.81;5035210;28;45527;-54
2023/06/05 04:20:21;;;;;;;;;7.00;5.33;;;;;17.99;51.49;101451.66;5035502;28;45439;-54
2023/06/05 04:22:47;;;;;;;;;6.33;6.00;;;;;17.97;51.62;101461.78;5035543;28;45425;-51
2023/06/05 04:25:13;;;;;;;;;9.33;7.00;;;;;17.98;51.72;101452.69;5035346;28;45780;-54
2023/06/05 04:27:40;;;;;;;;;9.00;6.67;;;;;17.97;51.70;101456.41;5035265;28;45745;-54
2023/06/05 04:30:07;;;;;;;;;8.00;8.00;;;;;17.99;51.61;101459.75;5036648;28;45520;-53
2023/06/05 04:32:34;;;;;;;;;7.00;6.67;;;;;17.97;52.11;101465.31;5038310;28;45328;-53
2023/06/05 04:35:00;;;;;;;;;7.00;6.67;;;;;17.97;51.67;101454.53;5038456;28;46221;-49
2023/06/05 04:37:25;;;;;;;;;13.00;8.33;;;;;17.96;51.78;101458.25;5038690;28;45447;-44
2023/06/05 04:39:51;;;;;;;;;8.67;5.67;;;;;17.94;51.91;101462.97;5038622;28;45401;-48
2023/06/05 04:42:17;;;;;;;;;9.00;8.67;;;;;17.93;52.10;101458.59;5038892;28;45367;-52
2023/06/05 04:44:43;;;;;;;;;12.00;7.00;;;;;17.92;52.01;101459.63;5037926;28;45462;-50
2023/06/05 04:47:08;;;;;;;;;10.00;10.00;;;;;17.90;52.01;101462.47;5038472;28;45310;-48
2023/06/05 04:49:34;;;;;;;;;11.33;8.33;;;;;17.89;52.47;101462.66;5038517;28;45538;-46
2023/06/05 04:51:59;;;;;;;;;10.33;9.33;;;;;17.88;52.03;101463.69;5038513;28;45365;-54
2023/06/05 04:54:25;;;;;;;;;9.67;6.67;;;;;17.89;52.14;101465.38;5038310;28;46203;-52
2023/06/05 04:56:50;;;;;;;;;11.00;8.67;;;;;17.90;52.55;101461.66;5037390;28;45446;-52
2023/06/05 04:59:15;;;;;;;;;9.33;9.00;;;;;17.88;52.30;101461.84;5037718;28;45363;-47
2023/06/05 05:01:41;;;;;;;;;9.67;9.67;;;;;17.90;52.53;101467.03;5038682;28;45310;-52
2023/06/05 05:04:06;;;;;;;;;8.33;8.33;;;;;17.80;51.52;101448.41;5037773;28;46067;-49
2023/06/05 05:06:33;;;;;;;;;20.00;11.33;;;;;17.90;52.59;101461.66;5038225;28;45274;-52
2023/06/05 05:08:59;;;;;;;;;10.00;8.00;;;;;17.84;52.27;101451.59;5037763;28;45395;-50
2023/06/05 05:11:26;;;;;;;;;8.67;8.00;;;;;17.88;52.23;101466.38;5038571;28;45337;-52
2023/06/05 05:13:51;;;;;;;;;15.00;10.33;;;;;17.84;52.98;101465.91;5037774;28;45438;-50
2023/06/05 05:16:16;;;;;;;;;8.00;7.00;;;;;17.87;52.66;101473.63;5020039;28;45430;-46
2023/06/05 05:18:44;;;;;;;;;10.67;9.67;;;;;17.88;52.88;101469.91;5037763;28;45421;-51
2023/06/05 05:21:10;;;;;;;;;10.67;7.67;;;;;17.87;52.67;101464.72;5038167;28;45432;-52
2023/06/05 05:23:35;;;;;;;;;13.00;11.00;;;;;17.90;52.75;101477.78;5037829;28;46119;-51
2023/06/05 05:26:02;;;;;;;;;9.33;7.00;;;;;17.87;52.77;101468.25;5036793;28;45497;-48
2023/06/05 05:28:28;;;;;;;;;12.00;9.33;;;;;17.90;53.10;101472.41;5038000;28;45451;-49
2023/06/05 05:30:55;;;;;;;;;10.33;10.00;;;;;17.93;52.78;101475.59;5037997;28;45389;-54
2023/06/05 05:33:22;;;;;;;;;13.67;10.00;;;;;17.92;52.85;101470.41;5037538;28;47305;-53
2023/06/05 05:35:47;;;;;;;;;14.00;11.00;;;;;17.97;52.95;101481.47;5037092;28;45432;-53
2023/06/05 05:38:12;;;;;;;;;16.00;10.00;;;;;17.92;52.75;101465.84;5037639;28;45371;-54
2023/06/05 05:40:38;;;;;;;;;8.67;8.67;;;;;17.97;53.22;101472.56;5037152;28;45315;-54
2023/06/05 05:43:03;;;;;;;;;8.67;8.33;;;;;18.00;53.00;101474.91;5036941;28;51195;-51
2023/06/05 05:45:28;;;;;;;;;21.33;15.00;;;;;18.06;52.62;101483.09;5037550;28;45640;-54
2023/06/05 05:47:54;;;;;;;;;15.00;14.33;;;;;18.09;52.61;101485.44;5037649;28;45302;-54
2023/06/05 05:50:19;;;;;;;;;12.33;12.00;;;;;18.12;52.91;101478.88;5037637;28;45360;-49
2023/06/05 05:52:44;;;;;;;;;13.67;12.67;;;;;18.17;53.20;101481.84;5037276;28;46147;-53
2023/06/05 05:55:10;;;;;;;;;9.67;9.67;;;;;18.19;52.68;101475.25;5019456;28;45520;-48
2023/06/05 05:57:36;;;;;;;;;14.67;10.00;;;;;18.22;52.30;101475.94;5037504;28;45340;-46
2023/06/05 06:00:05;;;;;;;;;10.33;10.33;;;;;18.29;52.59;101482.28;5037255;28;45412;-51
2023/06/05 06:02:32;;;;;;;;;12.00;11.33;;;;;18.31;52.71;101482.94;5037172;28;46191;-53
2023/06/05 06:04:57;;;;;;;;;17.00;14.00;;;;;18.36;52.37;101485.91;5036802;28;45386;-44
2023/06/05 06:07:22;;;;;;;;;15.00;9.33;;;;;18.38;52.67;101489.28;5037145;28;45391;-52
2023/06/05 06:09:48;;;;;;;;;13.67;8.67;;;;;18.43;52.31;101493.09;5037383;28;45433;-46
2023/06/05 06:12:13;;;;;;;;;10.00;8.00;;;;;18.49;52.32;101490.72;5036843;28;45796;-53
2023/06/05 06:14:39;;;;;;;;;12.67;10.33;;;;;18.53;52.17;101502.78;5037134;28;45412;-54
2023/06/05 06:17:05;;;;;;;;;13.33;10.33;;;;;18.59;52.21;101488.63;5037238;28;45425;-51
2023/06/05 06:19:32;;;;;;;;;13.67;9.00;;;;;18.65;52.09;101491.41;5037101;28;45316;-42
2023/06/05 06:21:58;;;;;;;;;11.33;11.33;;;;;18.68;51.81;101496.44;5036697;28;47110;-52
2023/06/05 06:24:24;;;;;;;;;10.00;9.33;;;;;18.77;51.88;101496.41;5037096;28;45329;-51
2023/06/05 06:26:51;;;;;;;;;11.00;9.67;;;;;18.77;51.62;101481.06;5037005;28;45275;-51
2023/06/05 06:29:20;;;;;;;;;13.33;12.00;;;;;18.87;51.33;101497.81;5036776;28;45398;-50
2023/06/05 06:31:46;;;;;;;;;12.00;8.00;;;;;18.98;50.92;101498.41;5036713;28;46181;-54
2023/06/05 06:34:12;;;;;;;;;11.00;9.00;;;;;20.00;49.46;101509.38;5035718;28;45430;-51
2023/06/05 06:36:40;;;;;;;;;11.00;11.00;;;;;21.56;46.77;101494.91;5036814;28;45392;-51
2023/06/05 06:39:10;;;;;;;;;10.00;7.33;;;;;22.35;44.41;101488.97;5036851;28;45354;-52
2023/06/05 06:41:36;;;;;;;;;14.00;9.33;;;;;23.12;42.84;101480.19;5036482;28;45381;-50
2023/06/05 06:44:02;;;;;;;;;13.00;12.75;;;;;24.38;41.44;101479.69;5035360;28;45437;-54
2023/06/05 06:46:27;;;;;;;;;16.50;13.50;;;;;25.49;39.49;101486.19;5036554;28;45457;-44
2023/06/05 06:48:52;;;;;;;;;11.75;10.00;;;;;26.41;37.40;101474.28;5036997;28;45448;-51
2023/06/05 06:51:18;;;;;;;;;11.25;10.00;;;;;27.18;36.13;101483.31;5036198;28;46299;-51
2023/06/05 06:53:44;;;;;;;;;10.25;9.00;;;;;27.92;34.61;101485.38;5035342;28;47815;-51
2023/06/05 06:56:09;;;;;;;;;11.20;9.60;;;;;28.50;32.86;101482.38;5036370;28;45322;-52
2023/06/05 06:58:36;;;;;;;;;9.25;9.00;;;;;29.01;32.98;101476.88;5036521;28;45445;-53
2023/06/05 07:01:01;;;;;;;;;10.40;9.80;;;;;29.48;31.69;101476.41;5036252;28;46442;-53
2023/06/05 07:03:27;;;;;;;;;10.00;9.25;;;;;29.94;31.87;101472.31;5036122;28;45341;-52
2023/06/05 07:05:52;;;;;;;;;11.00;8.25;;;;;30.41;30.36;101481.84;5036288;28;45936;-50
2023/06/05 07:08:17;;;;;;;;;9.25;8.75;;;;;30.74;29.76;101469.78;5036392;28;45438;-51
2023/06/05 07:10:43;;;;;;;;;10.50;10.50;;;;;31.19;29.21;101479.41;5018058;28;47156;-53
2023/06/05 07:13:08;;;;;;;;;8.75;8.75;;;;;31.60;28.45;101479.59;5036493;28;45227;-54
2023/06/05 07:15:35;;;;;;;;;9.25;8.00;;;;;32.00;28.25;101471.50;5036316;28;45577;-54
2023/06/05 07:18:01;;;;;;;;;9.20;9.00;;;;;32.38;27.82;101483.13;5018692;28;45345;-50
2023/06/05 07:20:26;;;;;;;;;13.00;10.00;;;;;32.71;27.48;101483.69;5035948;28;47152;-52
2023/06/05 07:22:52;;;;;;;;;9.00;8.00;;;;;33.03;26.80;101478.66;5036022;28;45223;-51
2023/06/05 07:25:17;;;;;;;;;10.75;9.50;;;;;33.26;26.65;101480.00;5036033;28;45401;-52
2023/06/05 07:27:44;;;;;;;;;13.75;9.25;;;;;33.49;26.16;101486.81;5036244;28;45520;-51
2023/06/05 07:30:10;;;;;;;;;10.60;7.80;;;;;33.71;25.73;101477.31;5035565;28;46319;-52
2023/06/05 07:32:35;;;;;;;;;9.00;7.00;;;;;33.88;26.35;101477.81;5035710;28;45426;-50
2023/06/05 07:35:01;;;;;;;;;10.00;8.00;;;;;34.06;25.37;101486.56;5035906;28;45503;-49
2023/06/05 07:37:27;;;;;;;;;8.40;7.80;;;;;34.34;24.83;101480.22;5036135;28;45538;-45
2023/06/05 07:39:53;;;;;;;;;8.75;7.25;;;;;34.52;24.84;101473.22;5018064;28;45456;-47
2023/06/05 07:42:19;;;;;;;;;9.80;7.20;;;;;34.89;24.63;101488.34;5035618;28;45724;-51
2023/06/05 07:44:44;;;;;;;;;9.00;8.50;;;;;35.14;24.11;101485.31;5036002;28;45449;-51
2023/06/05 07:47:10;;;;;;;;;11.50;7.25;;;;;35.43;23.81;101484.44;5036059;28;45381;-53
2023/06/05 07:49:35;;;;;;;;;12.25;9.50;;;;;35.73;23.18;101480.44;5035628;28;47024;-53
2023/06/05 07:52:01;;;;;;;;;11.00;8.00;;;;;35.98;23.12;101480.09;5035691;28;45341;-53
2023/06/05 07:54:26;;;;;;;;;9.50;8.00;;;;;36.11;22.79;101474.94;5036057;28;45364;-54
2023/06/05 07:56:51;;;;;;;;;8.00;8.00;;;;;36.31;22.74;101473.78;5036156;28;45394;-50
2023/06/05 07:59:24;;;;;;;;;9.00;8.25;;;;;36.44;22.72;101476.63;5035480;28;46201;-52
2023/06/05 08:01:49;;;;;;;;;10.20;8.60;;;;;36.60;22.25;101477.19;5035520;28;45362;-53
2023/06/05 08:04:15;;;;;;;;;10.25;7.50;;;;;36.68;22.20;101465.41;5036121;28;45306;-52
2023/06/05 08:06:41;;;;;;;;;11.00;8.80;;;;;36.90;22.09;101478.56;5039318;28;45419;-54
2023/06/05 08:09:10;;;;;;;;;8.00;6.75;;;;;37.11;22.02;101475.44;5038666;28;45468;-49
2023/06/05 08:11:37;;;;;;;;;10.00;9.40;;;;;37.32;21.62;101467.50;5038320;28;45754;-53
2023/06/05 08:14:03;;;;;;;;;9.00;7.20;;;;;37.43;21.82;101467.00;5039215;28;45448;-44
2023/06/05 08:16:29;;;;;;;;;7.60;7.00;;;;;37.61;22.22;101470.78;5021655;28;45730;-42
2023/06/05 08:18:55;;;;;;;;;9.00;7.50;;;;;37.67;21.21;101455.66;5039223;28;45532;-43
2023/06/05 08:21:20;;;;;;;;;8.25;7.25;;;;;37.89;20.90;101454.09;5038931;28;45559;-49
2023/06/05 08:23:46;;;;;;;;;7.75;6.00;;;;;38.13;21.20;101457.34;5038980;28;45273;-51
2023/06/05 08:26:11;;;;;;;;;7.00;7.00;;;;;38.35;20.35;101461.31;5039044;28;45374;-48
2023/06/05 08:28:41;;;;;;;;;7.25;6.00;;;;;38.52;20.50;101463.38;5038708;28;46344;-42
2023/06/05 08:31:10;;;;;;;;;8.40;5.80;;;;;38.77;20.59;101467.41;5038597;28;45508;-41
2023/06/05 08:33:37;;;;;;;;;8.80;7.00;;;;;38.97;20.02;101460.50;5038847;28;45346;-49
2023/06/05 08:36:03;;;;;;;;;4.60;4.60;;;;;39.08;19.68;101445.97;5038997;28;45544;-44
2023/06/05 08:38:29;;;;;;;;;5.60;5.00;;;;;39.29;19.62;101459.31;5038651;28;45490;-49
2023/06/05 08:41:07;;;;;;;;;6.00;5.60;;;;;39.53;19.75;101462.47;5039007;28;45235;-54
2023/06/05 08:43:36;;;;;;;;;9.20;7.00;;;;;39.71;19.34;101468.09;5038315;28;45885;-45
2023/06/05 08:46:02;;;;;;;;;7.60;7.00;;;;;39.87;19.14;101458.94;5038850;28;45314;-50
2023/06/05 08:48:32;;;;;;;;;7.75;6.00;;;;;40.08;18.88;101459.06;5038654;28;47123;-42
2023/06/05 08:50:58;;;;;;;;;7.40;7.20;;;;;40.10;18.99;101455.97;5038545;28;45340;-51
2023/06/05 08:53:28;;;;;;;;;10.20;6.60;;;;;40.22;18.88;101466.47;5038697;28;45352;-48
2023/06/05 08:55:55;;;;;;;;;8.40;6.60;;;;;40.38;18.81;101468.41;5038991;28;45410;-52
2023/06/05 08:58:21;;;;;;;;;7.80;7.80;;;;;40.46;18.44;101455.59;5038513;28;46369;-46
2023/06/05 09:00:48;;;;;;;;;5.50;3.50;;;;;40.69;18.44;101467.34;5038179;28;45386;-45
2023/06/05 09:03:15;;;;;;;;;3.80;3.20;;;;;40.92;18.65;101459.56;5038687;28;45335;-53
2023/06/05 09:05:40;;;;;;;;;6.80;5.80;;;;;41.09;17.66;101461.47;5038396;28;45480;-51
2023/06/05 09:08:06;;;;;;;;;7.25;6.50;;;;;41.23;18.26;101462.03;5038322;28;46149;-51
2023/06/05 09:10:31;;;;;;;;;9.00;6.00;;;;;41.29;18.12;101457.88;5037839;28;45337;-51
2023/06/05 09:13:02;;;;;;;;;6.25;6.25;;;;;41.26;17.58;101455.78;5038413;28;45346;-52
2023/06/05 09:15:29;;;;;;;;;8.20;7.80;;;;;41.24;17.78;101457.28;5038532;28;45456;-51
2023/06/05 09:18:15;;;;;;;;;6.80;6.80;;;;;41.12;17.93;101455.19;5038115;28;46279;-48
2023/06/05 09:20:45;;;;;;;;;6.40;5.00;;;;;41.15;18.20;101440.56;5038014;28;45384;-50
2023/06/05 09:23:27;;;;;;;;;6.40;6.00;;;;;41.06;17.89;101445.38;5037418;28;45480;-54
2023/06/05 09:26:01;;;;;;;;;6.00;6.00;;;;;41.08;18.31;101454.22;5038295;28;45322;-54
2023/06/05 09:28:29;;;;;;;;;5.80;5.80;;;;;40.99;18.08;101453.47;5037899;28;46105;-54
2023/06/05 09:30:59;;;;;;;;;5.40;5.20;;;;;40.77;18.09;101449.75;5037840;28;45196;-47
2023/06/05 09:33:26;;;;;;;;;7.60;7.60;;;;;40.38;18.70;101448.88;5038135;28;45392;-42
2023/06/05 09:36:03;;;;;;;;;7.60;6.60;;;;;39.94;19.21;101444.47;5037931;28;45464;-51
2023/06/05 09:38:29;;;;;;;;;7.80;7.00;;;;;39.71;19.14;101449.41;5037530;28;47255;-48
2023/06/05 09:41:02;;;;;;;;;7.20;6.60;;;;;39.37;19.41;101448.22;5037645;28;45263;-46
2023/06/05 09:43:28;;;;;;;;;8.00;4.60;;;;;39.17;19.78;101440.44;5037901;28;45338;-54
2023/06/05 09:45:53;;;;;;;;;8.00;6.00;;;;;39.21;19.81;101440.59;5038110;28;45419;-52
2023/06/05 09:48:19;;;;;;;;;8.25;5.25;;;;;39.18;19.85;101425.38;5037620;28;45985;-54
2023/06/05 09:50:45;;;;;;;;;9.00;8.40;;;;;38.94;19.58;101423.03;5037345;28;45440;-54
2023/06/05 09:53:16;;;;;;;;;10.75;7.75;;;;;38.63;20.15;101411.91;5037621;28;45341;-60
2023/06/05 09:55:41;;;;;;;;;3.60;3.60;;;;;38.59;19.70;101430.38;5037908;28;45285;-54
2023/06/05 09:58:13;;;;;;;;;6.00;5.50;;;;;38.54;19.97;101428.53;5037184;28;46413;-51
2023/06/05 10:00:41;;;;;;;;;11.20;8.40;;;;;38.43;20.12;101430.78;5037372;28;45415;-52
2023/06/05 10:03:14;;;;;;;;;5.20;5.20;;;;;38.29;20.27;101427.22;5037642;28;45351;-53
2023/06/05 10:05:41;;;;;;;;;4.00;4.00;;;;;38.34;20.41;101420.75;5037494;28;45322;-50
2023/06/05 10:08:06;;;;;;;;;8.00;6.00;;;;;38.30;20.09;101430.81;5037075;28;45417;-55
2023/06/05 10:10:33;;;;;;;;;6.00;6.00;;;;;38.08;20.20;101428.88;5037638;28;45317;-54
2023/06/05 10:13:01;;;;;;;;;8.20;7.00;;;;;37.93;20.91;101424.53;5037523;28;45625;-56
2023/06/05 10:15:27;;;;;;;;;9.20;8.20;;;;;37.79;20.96;101435.66;5037600;28;45628;-52
2023/06/05 10:17:54;;;;;;;;;6.40;6.40;;;;;37.52;20.54;101430.19;5037274;28;46210;-54
2023/06/05 10:20:21;;;;;;;;;6.40;5.60;;;;;37.20;21.12;101429.19;5036981;28;45496;-55
2023/06/05 10:22:49;;;;;;;;;7.20;6.00;;;;;36.88;21.22;101419.00;5037447;28;45318;-54
2023/06/05 10:25:18;;;;;;;;;7.40;7.40;;;;;36.63;21.27;101428.66;5037279;28;45418;-54
2023/06/05 10:28:11;;;;;;;;;4.60;3.60;;;;;36.37;22.24;101423.53;5036353;28;46236;-55
2023/06/05 10:30:46;;;;;;;;;6.00;6.00;;;;;36.15;21.71;101428.88;5036687;28;45645;-48
2023/06/05 10:33:23;;;;;;;;;7.00;6.20;;;;;36.00;21.80;101427.22;5037270;28;45186;-55
2023/06/05 10:36:00;;;;;;;;;7.60;7.60;;;;;35.78;20.72;101426.97;5037352;28;45253;-52
2023/06/05 10:38:27;;;;;;;;;9.00;6.00;;;;;35.56;20.93;101433.09;5036911;28;46199;-54
2023/06/05 10:40:58;;;;;;;;;6.20;4.40;;;;;35.42;20.52;101421.91;5036877;28;45397;-55
2023/06/05 10:43:33;;;;;;;;;7.00;6.60;;;;;35.15;20.33;101425.31;5037301;28;45385;-49
2023/06/05 10:46:00;;;;;;;;;11.00;8.20;;;;;34.78;20.86;101403.88;5037182;28;45240;-54
2023/06/05 10:49:03;;;;;;;;;7.80;7.80;;;;;34.57;20.96;101420.69;5036823;28;46987;-53
2023/06/05 10:51:39;;;;;;;;;9.40;6.40;;;;;34.41;21.81;101416.38;5036116;28;45747;-53
2023/06/05 10:54:06;;;;;;;;;5.20;4.80;;;;;34.09;22.07;101415.03;5036639;28;45381;-54
2023/06/05 10:56:50;;;;;;;;;5.80;5.80;;;;;33.70;22.80;101404.75;5036897;28;45918;-54
2023/06/05 10:59:16;;;;;;;;;7.00;7.00;;;;;33.33;23.22;101407.16;5036443;28;47206;-52
2023/06/05 11:01:41;;;;;;;;;6.75;6.75;;;;;32.80;22.94;101402.09;5036470;28;45265;-54
2023/06/05 11:04:07;;;;;;;;;7.00;7.00;;;;;32.33;23.48;101396.94;5036819;28;45382;-52
2023/06/05 11:06:32;;;;;;;;;5.00;5.00;;;;;31.98;24.06;101393.91;5036749;28;45329;-54
2023/06/05 11:09:14;;;;;;;;;6.25;6.25;;;;;31.60;24.18;101391.59;5036634;28;46046;-52
2023/06/05 11:11:59;;;;;;;;;4.80;4.80;;;;;31.26;25.05;101392.03;5036502;28;45406;-54
2023/06/05 11:14:42;;;;;;;;;7.00;7.00;;;;;30.82;24.36;101373.16;5036619;28;45314;-55
2023/06/05 11:17:26;;;;;;;;;7.00;7.00;;;;;30.69;24.71;101384.59;5036412;28;45456;-54
2023/06/05 11:19:51;;;;;;;;;7.60;6.40;;;;;30.56;24.83;101381.22;5036157;28;46505;-54
2023/06/05 11:22:17;;;;;;;;;10.00;8.00;;;;;30.45;25.25;101374.00;5036230;28;45366;-55
2023/06/05 11:24:43;;;;;;;;;7.80;7.00;;;;;30.40;25.14;101378.63;5036245;28;45463;-55